Phoenix, Arizona
Traffic Map
Current Weather Conditions
Phoenix, Arizona
Few Clouds
Few Clouds
38°
Feels Like: 38°
Wind Chill: 38° Ceiling: Unl
Heat Index: 38° Visibility: 10mi
Dew Point: 11° Wind: 7mph
Humidity: 20% Direction: 260° (W)
Pressure: 29.85in Gusts: 0mph
Raw Report DataKPHX 300651Z 26006KT 10SM FEW250 38/11 A2985 RMK AO2 SLP084 T03780111 404330333
Traffic Incident Summary
Active as of:
Severity:
Category:
InformationThere was an issue retrieving the traffic information for this location. Please try a different location or try again shortly.
Advertisements
Track Severe Weather on mobile